createdAt,value
2017-07-28T00:00:52.418Z,0
2017-07-28T00:02:02.768Z,0
2017-07-28T00:03:12.871Z,0
2017-07-28T00:04:23.217Z,0
2017-07-28T00:05:33.572Z,0
2017-07-28T00:06:43.913Z,0
2017-07-28T00:07:54.275Z,0
2017-07-28T00:09:04.670Z,0
2017-07-28T00:10:15.003Z,0
2017-07-28T00:11:25.343Z,0
2017-07-28T00:12:35.375Z,0
2017-07-28T00:13:45.410Z,0
2017-07-28T00:14:55.211Z,0
2017-07-28T00:16:05.580Z,0
2017-07-28T00:17:15.917Z,0
2017-07-28T00:18:25.944Z,0
2017-07-28T00:19:36.304Z,0
2017-07-28T00:20:46.330Z,0
2017-07-28T00:21:56.063Z,0
2017-07-28T00:23:06.417Z,0
2017-07-28T00:24:16.454Z,0
2017-07-28T00:25:26.804Z,0
2017-07-28T00:26:36.918Z,0
2017-07-28T00:27:47.266Z,0
2017-07-28T00:28:57.593Z,0
2017-07-28T00:30:07.641Z,0
2017-07-28T00:31:17.986Z,0
2017-07-28T00:32:28.389Z,0
2017-07-28T00:33:38.744Z,0
2017-07-28T00:34:49.107Z,0
2017-07-28T00:35:59.447Z,0
2017-07-28T00:37:09.493Z,0
2017-07-28T00:38:19.906Z,0
2017-07-28T00:39:30.267Z,0
2017-07-28T00:40:40.298Z,0
2017-07-28T00:41:50.637Z,0
2017-07-28T00:43:00.669Z,0
2017-07-28T00:44:11.061Z,0
2017-07-28T00:45:21.094Z,0
2017-07-28T00:46:31.460Z,0
2017-07-28T00:47:41.497Z,0
2017-07-28T00:48:51.850Z,0
2017-07-28T00:50:02.264Z,0
2017-07-28T00:51:12.602Z,0
2017-07-28T00:52:22.631Z,0
2017-07-28T00:53:33.027Z,0
2017-07-28T00:54:43.374Z,0
2017-07-28T00:55:53.762Z,0
2017-07-28T00:57:04.097Z,0
2017-07-28T00:58:14.447Z,0
2017-07-28T00:59:24.788Z,0
2017-07-28T01:00:35.124Z,0
2017-07-28T01:01:45.528Z,0
2017-07-28T01:02:55.866Z,0
2017-07-28T01:04:06.224Z,0
2017-07-28T01:05:16.572Z,0
2017-07-28T01:06:26.292Z,0
2017-07-28T01:07:36.688Z,0
2017-07-28T01:08:47.037Z,0
2017-07-28T01:09:57.069Z,0
2017-07-28T01:11:07.111Z,0
2017-07-28T01:12:17.143Z,0
2017-07-28T01:13:27.529Z,0
2017-07-28T01:14:37.871Z,0
2017-07-28T01:15:48.229Z,0
2017-07-28T01:16:58.570Z,0
2017-07-28T01:18:08.586Z,0
2017-07-28T01:19:18.994Z,0
2017-07-28T01:20:29.357Z,0
2017-07-28T01:21:39.728Z,0
2017-07-28T01:22:50.081Z,0
2017-07-28T01:24:00.099Z,0
2017-07-28T01:25:10.187Z,0
2017-07-28T01:26:20.541Z,0
2017-07-28T01:27:30.893Z,0
2017-07-28T01:28:41.239Z,0
2017-07-28T01:29:51.570Z,0
2017-07-28T01:31:01.995Z,0
2017-07-28T01:32:12.018Z,0
2017-07-28T01:33:22.389Z,0
2017-07-28T01:34:32.750Z,0
2017-07-28T01:35:43.105Z,0
2017-07-28T01:36:53.643Z,0
2017-07-28T01:38:03.982Z,0
2017-07-28T01:39:14.012Z,0
2017-07-28T01:40:24.347Z,0
2017-07-28T01:41:34.698Z,0
2017-07-28T01:42:44.740Z,0
2017-07-28T01:43:54.775Z,0
2017-07-28T01:45:05.124Z,0
2017-07-28T01:46:15.169Z,0
2017-07-28T01:47:25.523Z,0
2017-07-28T01:48:35.912Z,0
2017-07-28T01:49:46.255Z,0
2017-07-28T01:50:56.596Z,0
2017-07-28T01:52:06.646Z,0
2017-07-28T01:53:16.997Z,0
2017-07-28T01:54:27.402Z,0
2017-07-28T01:55:37.752Z,0
2017-07-28T01:56:47.778Z,0
2017-07-28T01:57:58.122Z,0
2017-07-28T01:59:08.459Z,0
2017-07-28T02:00:18.855Z,0
2017-07-28T02:01:29.187Z,0
2017-07-28T02:02:39.222Z,0
2017-07-28T02:03:49.567Z,0
2017-07-28T02:04:59.912Z,0
2017-07-28T02:06:09.681Z,0
2017-07-28T02:07:19.727Z,0
2017-07-28T02:08:30.083Z,0
2017-07-28T02:09:40.426Z,0
2017-07-28T02:10:50.158Z,0
2017-07-28T02:12:00.540Z,0
2017-07-28T02:13:10.575Z,0
2017-07-28T02:14:20.612Z,0
2017-07-28T02:15:30.952Z,0
2017-07-28T02:16:41.310Z,0
2017-07-28T02:17:51.336Z,0
2017-07-28T02:19:01.354Z,0
2017-07-28T02:20:11.411Z,0
2017-07-28T02:21:21.452Z,0
2017-07-28T02:22:31.487Z,0
2017-07-28T02:23:41.836Z,0
2017-07-28T02:24:52.205Z,0
2017-07-28T02:26:02.547Z,0
2017-07-28T02:27:12.891Z,0
2017-07-28T02:28:23.237Z,0
2017-07-28T02:29:33.293Z,0
2017-07-28T02:30:43.325Z,0
2017-07-28T02:31:53.359Z,0
2017-07-28T02:33:03.720Z,0
2017-07-28T02:34:13.462Z,0
2017-07-28T02:35:23.819Z,0
2017-07-28T02:36:33.861Z,0
2017-07-28T02:37:44.216Z,0
2017-07-28T02:38:54.258Z,0
2017-07-28T02:40:04.298Z,0
2017-07-28T02:41:14.349Z,0
2017-07-28T02:42:24.706Z,0
2017-07-28T02:43:35.049Z,0
2017-07-28T02:44:45.390Z,0
2017-07-28T02:45:55.745Z,0
2017-07-28T02:47:06.092Z,0
2017-07-28T02:48:16.437Z,0
2017-07-28T02:49:26.777Z,0
2017-07-28T02:50:36.830Z,0
2017-07-28T02:51:46.871Z,0
2017-07-28T02:52:57.254Z,0
2017-07-28T02:54:07.602Z,0
2017-07-28T02:55:17.938Z,4
2017-07-28T02:56:28.290Z,4
2017-07-28T02:57:38.629Z,4
2017-07-28T02:58:49.040Z,0
2017-07-28T02:59:59.379Z,0
2017-07-28T03:01:09.717Z,4
2017-07-28T03:33:32.056Z,136
2017-07-28T03:34:42.400Z,152
2017-07-28T03:35:52.726Z,168
2017-07-28T03:37:02.774Z,184
2017-07-28T03:38:13.130Z,200
2017-07-28T03:39:23.200Z,212
2017-07-28T03:40:33.549Z,224
2017-07-28T03:41:43.565Z,244
2017-07-28T03:42:53.616Z,268
2017-07-28T03:44:03.323Z,284
2017-07-28T03:45:13.735Z,296
2017-07-28T03:46:24.107Z,312
2017-07-28T03:47:34.444Z,340
2017-07-28T03:48:44.480Z,376
2017-07-28T03:49:54.841Z,416
2017-07-28T03:51:04.922Z,452
2017-07-28T03:52:14.964Z,488
2017-07-28T03:53:25.307Z,528
2017-07-28T03:54:35.659Z,588
2017-07-28T03:55:45.710Z,672
2017-07-28T03:56:56.114Z,748
2017-07-28T03:58:06.464Z,836
2017-07-28T03:59:16.821Z,936
2017-07-28T04:00:27.165Z,1020
2017-07-28T04:01:36.886Z,1116
2017-07-28T04:02:47.307Z,1284
2017-07-28T04:03:57.652Z,1436
2017-07-28T04:05:07.997Z,1620
2017-07-28T04:06:18.047Z,1696
2017-07-28T04:07:28.393Z,1772
2017-07-28T04:08:38.790Z,1892
2017-07-28T04:09:49.130Z,1936
2017-07-28T04:10:59.468Z,1984
2017-07-28T04:12:09.814Z,2104
2017-07-28T04:13:20.157Z,2212
2017-07-28T04:14:30.189Z,2336
2017-07-28T04:15:40.550Z,2484
2017-07-28T04:16:50.885Z,2604
2017-07-28T04:18:01.224Z,2668
2017-07-28T04:19:10.955Z,2720
2017-07-28T04:20:21.033Z,2748
2017-07-28T04:21:31.381Z,2724
2017-07-28T04:22:41.731Z,2672
2017-07-28T04:23:51.766Z,2596
2017-07-28T04:25:02.135Z,6380
2017-07-28T04:26:12.491Z,6008
2017-07-28T04:27:22.839Z,2768
2017-07-28T04:28:32.892Z,1792
2017-07-28T04:29:43.244Z,1652
2017-07-28T04:30:53.279Z,1632
2017-07-28T04:32:03.695Z,1648
2017-07-28T04:33:14.047Z,1684
2017-07-28T04:34:24.407Z,1772
2017-07-28T04:35:34.741Z,4660
2017-07-28T04:36:44.771Z,1664
2017-07-28T04:37:54.800Z,1568
2017-07-28T04:39:04.837Z,1524
2017-07-28T04:40:15.171Z,1520
2017-07-28T04:41:25.207Z,1496
2017-07-28T04:42:35.558Z,1484
2017-07-28T04:43:45.628Z,1516
2017-07-28T04:44:55.032Z,1604
2017-07-28T04:46:05.380Z,1748
2017-07-28T04:47:15.728Z,1956
2017-07-28T04:48:26.056Z,2244
2017-07-28T04:49:36.456Z,2500
2017-07-28T04:50:46.800Z,2596
2017-07-28T04:51:57.146Z,2592
2017-07-28T04:53:07.497Z,2496
2017-07-28T04:54:17.862Z,2324
2017-07-28T04:55:28.252Z,2304
2017-07-28T04:56:38.592Z,2432
2017-07-28T04:57:48.927Z,2644
2017-07-28T04:58:58.953Z,2764
2017-07-28T05:00:08.993Z,2848
2017-07-28T05:01:19.394Z,3016
2017-07-28T05:02:29.755Z,2952
2017-07-28T05:03:39.795Z,2852
2017-07-28T05:04:50.150Z,2916
2017-07-28T05:06:00.168Z,3068
2017-07-28T05:07:10.252Z,3384
2017-07-28T05:08:19.962Z,3512
2017-07-28T05:09:30.310Z,3568
2017-07-28T05:10:40.339Z,3548
2017-07-28T05:11:50.692Z,3540
2017-07-28T05:13:01.041Z,3616
2017-07-28T05:14:11.384Z,3368
2017-07-28T05:15:21.422Z,3308
2017-07-28T05:16:31.449Z,3768
2017-07-28T05:17:41.500Z,5504
2017-07-28T05:18:51.847Z,4508
2017-07-28T05:20:01.882Z,10864
2017-07-28T05:21:12.250Z,8484
2017-07-28T05:22:22.599Z,17696
2017-07-28T05:23:32.949Z,17664
2017-07-28T05:24:43.291Z,17888
2017-07-28T05:25:53.637Z,18368
2017-07-28T05:27:03.996Z,16960
2017-07-28T05:28:14.342Z,12228
2017-07-28T05:29:24.696Z,18464
2017-07-28T05:30:35.130Z,16512
2017-07-28T05:31:45.156Z,16096
2017-07-28T05:32:55.195Z,18144
2017-07-28T05:34:05.645Z,17984
2017-07-28T05:35:15.986Z,18624
2017-07-28T05:36:26.385Z,18496
2017-07-28T05:37:36.118Z,18944
2017-07-28T05:38:46.468Z,13728
2017-07-28T05:39:56.824Z,16672
2017-07-28T05:41:06.545Z,18528
2017-07-28T05:42:16.583Z,18752
2017-07-28T05:43:26.924Z,18336
2017-07-28T05:44:36.952Z,17792
2017-07-28T05:45:47.298Z,17696
2017-07-28T05:46:57.352Z,17376
2017-07-28T05:48:07.452Z,6104
2017-07-28T05:49:17.801Z,4192
2017-07-28T05:50:28.161Z,3916
2017-07-28T05:51:38.520Z,3844
2017-07-28T05:52:48.565Z,3960
2017-07-28T05:53:58.979Z,4252
2017-07-28T05:55:09.336Z,4656
2017-07-28T05:56:19.371Z,4904
2017-07-28T05:57:29.422Z,4952
2017-07-28T05:58:39.470Z,5204
2017-07-28T05:59:49.868Z,5472
2017-07-28T06:01:00.227Z,5588
2017-07-28T06:02:10.269Z,5640
2017-07-28T06:03:20.623Z,6012
2017-07-28T06:04:30.972Z,7364
2017-07-28T06:05:41.000Z,8628
2017-07-28T06:06:51.340Z,6364
2017-07-28T06:08:01.671Z,7524
2017-07-28T06:09:12.033Z,10624
2017-07-28T06:10:22.374Z,5888
2017-07-28T06:11:32.155Z,6056
2017-07-28T06:12:42.534Z,6320
2017-07-28T06:13:52.881Z,6340
2017-07-28T06:15:03.238Z,6040
2017-07-28T06:16:13.588Z,5620
2017-07-28T06:17:23.943Z,5268
2017-07-28T06:18:33.983Z,5048
2017-07-28T06:19:44.329Z,4308
2017-07-28T06:20:54.687Z,4140
2017-07-28T06:22:05.037Z,4252
2017-07-28T06:23:15.390Z,3888
2017-07-28T06:24:25.414Z,4512
2017-07-28T06:25:35.765Z,5292
2017-07-28T06:26:45.792Z,5868
2017-07-28T06:27:56.139Z,6292
2017-07-28T06:29:06.504Z,6160
2017-07-28T06:30:16.850Z,6064
2017-07-28T06:31:26.878Z,5980
2017-07-28T06:32:37.237Z,5924
2017-07-28T06:33:47.596Z,5948
2017-07-28T06:34:57.711Z,5832
2017-07-28T06:36:08.064Z,5880
2017-07-28T06:37:17.805Z,5688
2017-07-28T06:38:28.162Z,5192
2017-07-28T06:39:38.507Z,4836
2017-07-28T06:40:48.833Z,5056
2017-07-28T06:41:59.183Z,5496
2017-07-28T06:43:09.529Z,6732
2017-07-28T06:44:19.881Z,8044
2017-07-28T06:45:29.602Z,8388
2017-07-28T06:46:39.388Z,8400
2017-07-28T06:47:49.759Z,8596
2017-07-28T06:48:59.788Z,5932
2017-07-28T06:50:10.144Z,3904
2017-07-28T06:51:20.517Z,3940
2017-07-28T06:52:30.872Z,3684
2017-07-28T06:53:41.237Z,3624
2017-07-28T06:54:51.606Z,4076
2017-07-28T06:56:01.986Z,3624
2017-07-28T06:57:12.325Z,3616
2017-07-28T06:58:22.677Z,7384
2017-07-28T06:59:33.020Z,4884
2017-07-28T07:00:43.061Z,4276
2017-07-28T07:01:53.428Z,4600
2017-07-28T07:03:03.449Z,4804
2017-07-28T07:04:13.854Z,5092
2017-07-28T07:05:24.211Z,5260
2017-07-28T07:06:34.570Z,5504
2017-07-28T07:07:44.935Z,5576
2017-07-28T07:08:55.279Z,5672
2017-07-28T07:10:05.721Z,5836
2017-07-28T07:11:16.066Z,5828
2017-07-28T07:12:26.101Z,5740
2017-07-28T07:13:36.476Z,5564
2017-07-28T07:14:46.824Z,5404
2017-07-28T07:15:56.914Z,5072
2017-07-28T07:17:07.264Z,4644
2017-07-28T07:18:17.300Z,4252
2017-07-28T07:19:27.660Z,3828
2017-07-28T07:20:38.011Z,3620
2017-07-28T07:21:48.085Z,3504
2017-07-28T07:22:58.437Z,3472
2017-07-28T07:24:08.790Z,3392
2017-07-28T07:25:19.144Z,3512
2017-07-28T07:26:29.206Z,3448
2017-07-28T07:27:39.597Z,3244
2017-07-28T07:28:49.941Z,3504
2017-07-28T07:30:00.293Z,4056
2017-07-28T07:31:10.637Z,4712
2017-07-28T07:32:20.369Z,3164
2017-07-28T07:33:30.440Z,3532
2017-07-28T07:34:40.787Z,4260
2017-07-28T07:35:51.165Z,5136
2017-07-28T07:37:01.537Z,5016
2017-07-28T07:38:11.887Z,4984
2017-07-28T07:39:21.920Z,5028
2017-07-28T07:40:32.288Z,5116
2017-07-28T07:41:42.640Z,5232
2017-07-28T07:42:52.681Z,5324
2017-07-28T07:44:03.035Z,5384
2017-07-28T07:45:13.454Z,5316
2017-07-28T07:46:23.824Z,5184
2017-07-28T07:47:34.171Z,5044
2017-07-28T07:48:44.523Z,4948
2017-07-28T07:49:54.552Z,4960
2017-07-28T07:51:04.626Z,5040
2017-07-28T07:52:14.969Z,3588
2017-07-28T07:53:25.326Z,3460
2017-07-28T07:54:35.055Z,3728
2017-07-28T07:55:45.410Z,4200
2017-07-28T07:56:55.805Z,4896
2017-07-28T07:58:05.537Z,4880
2017-07-28T07:59:15.566Z,4908
2017-07-28T08:00:25.965Z,4964
2017-07-28T08:01:36.305Z,5100
2017-07-28T08:02:46.715Z,5256
2017-07-28T08:03:57.066Z,5020
2017-07-28T08:05:07.420Z,4988
2017-07-28T08:06:17.462Z,4064
2017-07-28T08:07:27.841Z,5400
2017-07-28T08:08:38.229Z,5164
2017-07-28T08:09:48.579Z,5200
2017-07-28T08:10:58.619Z,5220
2017-07-28T08:12:08.977Z,4232
2017-07-28T08:13:19.321Z,5296
2017-07-28T08:14:29.733Z,5084
2017-07-28T08:15:39.775Z,5028
2017-07-28T08:16:49.824Z,5204
2017-07-28T08:18:00.176Z,5376
2017-07-28T08:19:10.531Z,5256
2017-07-28T08:20:20.580Z,5116
2017-07-28T08:21:30.607Z,5080
2017-07-28T08:22:40.657Z,5152
2017-07-28T08:23:51.018Z,5344
2017-07-28T08:25:01.389Z,5276
2017-07-28T08:26:11.749Z,5160
2017-07-28T08:27:22.093Z,5120
2017-07-28T08:28:32.449Z,5220
2017-07-28T08:29:42.813Z,5232
2017-07-28T08:30:52.846Z,5220
2017-07-28T08:32:03.235Z,5176
2017-07-28T08:33:13.717Z,5200
2017-07-28T08:34:24.092Z,5128
2017-07-28T08:35:34.425Z,5072
2017-07-28T08:36:44.774Z,5044
2017-07-28T08:37:55.172Z,5068
2017-07-28T08:39:05.511Z,5080
2017-07-28T08:40:15.863Z,5088
2017-07-28T08:41:26.258Z,5116
2017-07-28T08:42:36.314Z,5116
2017-07-28T08:43:46.732Z,5132
2017-07-28T08:44:57.097Z,5160
2017-07-28T08:46:07.456Z,5152
2017-07-28T08:47:17.813Z,5200
2017-07-28T08:48:28.202Z,5232
2017-07-28T08:49:38.566Z,5252
2017-07-28T08:50:48.606Z,5256
2017-07-28T08:51:58.672Z,5272
2017-07-28T08:53:09.060Z,5340
2017-07-28T08:54:19.098Z,5412
2017-07-28T08:55:29.200Z,5448
2017-07-28T08:56:39.656Z,5472
2017-07-28T08:57:49.739Z,5552
2017-07-28T08:59:00.181Z,5664
2017-07-28T09:00:10.805Z,5764
2017-07-28T09:01:21.327Z,5772
2017-07-28T09:02:31.374Z,5728
2017-07-28T09:03:41.462Z,5652
2017-07-28T09:04:51.509Z,5620
2017-07-28T09:06:01.896Z,5652
2017-07-28T09:07:12.264Z,5676
2017-07-28T09:08:22.002Z,5676
2017-07-28T09:09:32.389Z,5584
2017-07-28T09:10:42.787Z,5572
2017-07-28T09:11:53.189Z,5556
2017-07-28T09:13:03.292Z,5584
2017-07-28T09:14:13.076Z,5620
2017-07-28T09:15:23.426Z,5664
2017-07-28T09:16:33.483Z,5680
2017-07-28T09:17:43.944Z,5712
2017-07-28T09:18:54.001Z,5744
2017-07-28T09:20:04.057Z,5752
2017-07-28T09:21:14.425Z,5760
2017-07-28T09:22:24.853Z,5796
2017-07-28T09:23:35.246Z,5920
2017-07-28T09:24:45.363Z,6036
2017-07-28T09:25:55.756Z,6016
2017-07-28T09:27:06.212Z,5980
2017-07-28T09:28:16.605Z,5964
2017-07-28T09:29:26.990Z,6012
2017-07-28T09:30:37.648Z,6024
2017-07-28T09:31:47.704Z,5976
2017-07-28T09:32:58.151Z,5972
2017-07-28T09:34:08.525Z,5988
2017-07-28T09:35:18.972Z,6044
2017-07-28T09:36:28.792Z,6028
2017-07-28T09:37:39.168Z,5948
2017-07-28T09:38:49.223Z,5976
2017-07-28T09:39:58.662Z,5928
2017-07-28T09:41:08.756Z,5976
2017-07-28T09:42:18.879Z,5988
2017-07-28T09:43:29.252Z,6076
2017-07-28T09:44:39.670Z,6152
2017-07-28T09:45:50.033Z,6040
2017-07-28T09:47:00.405Z,6040
2017-07-28T09:48:10.517Z,6064
2017-07-28T09:49:20.881Z,6076
2017-07-28T09:50:31.247Z,6048
2017-07-28T09:51:41.575Z,6060
2017-07-28T09:52:51.961Z,6096
2017-07-28T09:54:02.363Z,6116
2017-07-28T09:55:12.759Z,6220
2017-07-28T09:56:22.802Z,6140
2017-07-28T09:57:33.187Z,6164
2017-07-28T09:58:43.550Z,6196
2017-07-28T09:59:53.918Z,6264
2017-07-28T10:01:04.304Z,6252
2017-07-28T10:02:14.379Z,6204
2017-07-28T10:03:24.806Z,6196
2017-07-28T10:04:35.225Z,6164
2017-07-28T10:05:45.600Z,6228
2017-07-28T10:06:55.939Z,6240
2017-07-28T10:08:06.361Z,6288
2017-07-28T10:09:16.446Z,6296
2017-07-28T10:10:26.852Z,6348
2017-07-28T10:11:37.086Z,6304
2017-07-28T10:12:47.188Z,6304
2017-07-28T10:13:57.590Z,6340
2017-07-28T10:15:07.748Z,6300
2017-07-28T10:16:18.140Z,6320
2017-07-28T10:17:28.624Z,6344
2017-07-28T10:18:39.011Z,6400
2017-07-28T10:19:49.085Z,6420
2017-07-28T10:20:59.464Z,6456
2017-07-28T10:22:09.826Z,6460
2017-07-28T10:23:20.256Z,6560
2017-07-28T10:24:30.032Z,6668
2017-07-28T10:25:40.404Z,6744
2017-07-28T10:26:50.791Z,6744
2017-07-28T10:28:01.153Z,6664
2017-07-28T10:29:11.312Z,6664
2017-07-28T10:30:21.737Z,6656
2017-07-28T10:31:32.122Z,6684
2017-07-28T10:32:42.179Z,6696
2017-07-28T10:33:52.225Z,6672
2017-07-28T10:35:02.332Z,6660
2017-07-28T10:36:12.690Z,6656
2017-07-28T10:37:23.097Z,6584
2017-07-28T10:38:33.540Z,6664
2017-07-28T10:39:43.582Z,6688
2017-07-28T10:40:53.678Z,6852
2017-07-28T10:42:04.057Z,6928
2017-07-28T10:43:14.406Z,6796
2017-07-28T10:44:24.749Z,6828
2017-07-28T10:45:35.187Z,6724
2017-07-28T10:46:45.545Z,6776
2017-07-28T10:47:55.612Z,6880
2017-07-28T10:49:05.956Z,6928
2017-07-28T10:50:16.551Z,6968
2017-07-28T10:51:27.136Z,6892
2017-07-28T10:52:37.540Z,6932
2017-07-28T10:53:47.652Z,6992
2017-07-28T10:54:57.761Z,7032
2017-07-28T10:56:08.309Z,7048
2017-07-28T10:57:18.753Z,6940
2017-07-28T10:58:29.186Z,6964
2017-07-28T10:59:39.633Z,6912
2017-07-28T11:00:50.082Z,7024
2017-07-28T11:02:00.487Z,7068
2017-07-28T11:03:10.902Z,7008
2017-07-28T11:04:21.312Z,6984
2017-07-28T11:05:31.664Z,7032
2017-07-28T11:06:41.798Z,7112
2017-07-28T11:07:52.153Z,7396
2017-07-28T11:09:02.518Z,7556
2017-07-28T11:10:12.360Z,7500
2017-07-28T11:11:22.719Z,7656
2017-07-28T11:12:33.069Z,7700
2017-07-28T11:13:43.442Z,7556
2017-07-28T11:14:53.787Z,7536
2017-07-28T11:16:03.890Z,7608
2017-07-28T11:17:13.976Z,7796
2017-07-28T11:18:24.091Z,8032
2017-07-28T11:19:34.132Z,8060
2017-07-28T11:20:44.537Z,8092
2017-07-28T11:21:54.999Z,7892
2017-07-28T11:23:05.394Z,7636
2017-07-28T11:24:15.816Z,7512
2017-07-28T11:25:26.259Z,7468
2017-07-28T11:26:36.659Z,7500
2017-07-28T11:27:46.774Z,7500
2017-07-28T11:28:57.176Z,7512
2017-07-28T11:30:07.533Z,7588
2017-07-28T11:31:17.919Z,7336
2017-07-28T11:32:28.253Z,7076
2017-07-28T11:33:38.689Z,7200
2017-07-28T11:34:48.778Z,7520
2017-07-28T11:35:59.224Z,7556
2017-07-28T11:37:09.270Z,7484
2017-07-28T11:38:19.677Z,7672
2017-07-28T11:39:30.109Z,7728
2017-07-28T11:40:40.160Z,3684
2017-07-28T11:41:50.549Z,7744
2017-07-28T11:43:00.972Z,7840
2017-07-28T11:44:11.330Z,7696
2017-07-28T11:45:21.082Z,7636
2017-07-28T11:46:31.522Z,7644
2017-07-28T11:47:41.583Z,7628
2017-07-28T11:48:51.342Z,7632
2017-07-28T11:50:01.713Z,7636
2017-07-28T11:51:12.069Z,7644
2017-07-28T11:52:22.462Z,7580
2017-07-28T11:53:32.526Z,7640
2017-07-28T11:54:42.922Z,7652
2017-07-28T11:55:53.377Z,7692
2017-07-28T11:57:03.764Z,7664
2017-07-28T11:58:13.842Z,7688
2017-07-28T11:59:23.924Z,7756
2017-07-28T12:00:33.979Z,8112
2017-07-28T12:01:44.363Z,8412
2017-07-28T12:02:54.815Z,8612
2017-07-28T12:04:05.247Z,8296
2017-07-28T12:05:15.608Z,3612
2017-07-28T12:06:26.009Z,3592
2017-07-28T12:07:36.074Z,3860
2017-07-28T12:08:46.618Z,4416
2017-07-28T12:09:57.088Z,4980
2017-07-28T12:11:07.466Z,5228
2017-07-28T12:12:17.839Z,5332
2017-07-28T12:13:28.217Z,6132
2017-07-28T12:14:38.644Z,6296
2017-07-28T12:15:48.723Z,6536
2017-07-28T12:16:58.841Z,6344
2017-07-28T12:18:08.954Z,6816
2017-07-28T12:19:19.014Z,7076
2017-07-28T12:20:29.500Z,7176
2017-07-28T12:21:39.615Z,7344
2017-07-28T12:22:49.977Z,7232
2017-07-28T12:24:00.336Z,7208
2017-07-28T12:25:10.747Z,7284
2017-07-28T12:26:21.247Z,7300
2017-07-28T12:27:31.605Z,7332
2017-07-28T12:28:41.993Z,7452
2017-07-28T12:29:52.564Z,7536
2017-07-28T12:31:02.652Z,7824
2017-07-28T12:32:13.211Z,7920
2017-07-28T12:33:23.613Z,8056
2017-07-28T12:34:34.022Z,8660
2017-07-28T12:35:44.433Z,8168
2017-07-28T12:36:54.849Z,8720
2017-07-28T12:38:05.242Z,8668
2017-07-28T12:39:15.353Z,8756
2017-07-28T12:40:25.736Z,7984
2017-07-28T12:41:35.826Z,7636
2017-07-28T12:42:45.609Z,8088
2017-07-28T12:43:56.076Z,9128
2017-07-28T12:45:06.644Z,9156
2017-07-28T12:46:17.047Z,9232
2017-07-28T12:47:27.412Z,9056
2017-07-28T12:48:37.505Z,9844
2017-07-28T12:49:47.948Z,9600
2017-07-28T12:50:58.372Z,8808
2017-07-28T12:52:08.772Z,8368
2017-07-28T12:53:19.157Z,8160
2017-07-28T12:54:29.562Z,7912
2017-07-28T12:55:39.712Z,8188
2017-07-28T12:56:49.769Z,7472
2017-07-28T12:58:00.142Z,6536
2017-07-28T12:59:10.555Z,7976
2017-07-28T13:00:20.339Z,6540
2017-07-28T13:01:30.748Z,6412
2017-07-28T13:02:41.185Z,7884
2017-07-28T13:03:51.289Z,6612
2017-07-28T13:05:01.428Z,8020
2017-07-28T13:06:11.786Z,8208
2017-07-28T13:07:21.875Z,8232
2017-07-28T13:08:32.254Z,8308
2017-07-28T13:09:42.653Z,8504
2017-07-28T13:10:53.047Z,8224
2017-07-28T13:12:03.416Z,7420
2017-07-28T13:13:13.865Z,6508
2017-07-28T13:14:23.947Z,7948
2017-07-28T13:15:34.321Z,8164
2017-07-28T13:16:44.721Z,8084
2017-07-28T13:17:54.776Z,8328
2017-07-28T13:19:05.247Z,8632
2017-07-28T13:20:15.785Z,10188
2017-07-28T13:21:26.277Z,9344
2017-07-28T13:22:36.656Z,6796
2017-07-28T13:23:47.080Z,6652
2017-07-28T13:24:57.571Z,7552
2017-07-28T13:26:08.105Z,7492
2017-07-28T13:27:18.505Z,7168
2017-07-28T13:28:28.910Z,7276
2017-07-28T13:29:39.319Z,7176
2017-07-28T13:30:49.700Z,6760
2017-07-28T13:32:00.081Z,6492
2017-07-28T13:33:10.486Z,6396
2017-07-28T13:34:20.875Z,6340
2017-07-28T13:35:31.310Z,6300
2017-07-28T13:36:41.775Z,5856
2017-07-28T13:37:52.279Z,5792
2017-07-28T13:39:02.373Z,5268
2017-07-28T13:40:12.820Z,5556
2017-07-28T13:41:23.198Z,5676
2017-07-28T13:42:33.629Z,5316
2017-07-28T13:43:44.036Z,4912
2017-07-28T13:44:54.117Z,5336
2017-07-28T13:46:04.541Z,4720
2017-07-28T13:47:14.939Z,5384
2017-07-28T13:48:25.146Z,5912
2017-07-28T13:49:35.577Z,5616
2017-07-28T13:50:46.067Z,5952
2017-07-28T13:51:56.193Z,5760
2017-07-28T13:53:07.019Z,4980
2017-07-28T13:54:17.229Z,5620
2017-07-28T13:55:27.649Z,5448
2017-07-28T13:56:38.217Z,5624
2017-07-28T13:57:48.781Z,5796
2017-07-28T13:58:59.416Z,6856
2017-07-28T14:00:10.509Z,6448
2017-07-28T14:01:21.111Z,6360
2017-07-28T14:02:31.637Z,5876
2017-07-28T14:03:42.072Z,5736
2017-07-28T14:04:52.727Z,5636
2017-07-28T14:06:02.845Z,5412
2017-07-28T14:07:13.245Z,5416
2017-07-28T14:08:23.641Z,5388
2017-07-28T14:09:33.714Z,5532
2017-07-28T14:10:44.127Z,5860
2017-07-28T14:11:54.612Z,5612
2017-07-28T14:13:05.048Z,5252
2017-07-28T14:14:15.439Z,5220
2017-07-28T14:15:25.918Z,5372
2017-07-28T14:16:36.389Z,5512
2017-07-28T14:17:46.214Z,5696
2017-07-28T14:18:56.004Z,4888
2017-07-28T14:20:06.489Z,4616
2017-07-28T14:21:16.943Z,4032
2017-07-28T14:22:27.365Z,4952
2017-07-28T14:23:37.907Z,5276
2017-07-28T14:24:47.969Z,6380
2017-07-28T14:25:58.167Z,6552
2017-07-28T14:27:08.258Z,7644
2017-07-28T14:28:18.696Z,7768
2017-07-28T14:29:28.769Z,6384
2017-07-28T14:30:39.264Z,8096
2017-07-28T14:31:49.631Z,8124
2017-07-28T14:32:59.700Z,4544
2017-07-28T14:34:09.774Z,4280
2017-07-28T14:35:20.142Z,4208
2017-07-28T14:36:30.512Z,4008
2017-07-28T14:37:40.895Z,4196
2017-07-28T14:38:51.283Z,4144
2017-07-28T14:40:01.698Z,4420
2017-07-28T14:41:11.555Z,4312
2017-07-28T14:42:21.640Z,4336
2017-07-28T14:43:32.002Z,4380
2017-07-28T14:44:42.080Z,4596
2017-07-28T14:45:52.472Z,4876
2017-07-28T14:47:02.913Z,5212
2017-07-28T14:48:12.968Z,5160
2017-07-28T14:49:22.756Z,7560
2017-07-28T14:50:32.814Z,5164
2017-07-28T14:51:43.224Z,5372
2017-07-28T14:52:53.697Z,5556
2017-07-28T14:54:03.752Z,5560
2017-07-28T14:55:14.135Z,5628
2017-07-28T14:56:24.505Z,5816
2017-07-28T14:57:34.249Z,5972
2017-07-28T14:58:44.705Z,6224
2017-07-28T14:59:55.096Z,6060
2017-07-28T15:01:05.158Z,6136
2017-07-28T15:02:15.515Z,6052
2017-07-28T15:03:25.585Z,6068
2017-07-28T15:04:35.729Z,6052
2017-07-28T15:05:45.879Z,8276
2017-07-28T15:06:56.290Z,6456
2017-07-28T15:08:06.677Z,6656
2017-07-28T15:09:17.034Z,7024
2017-07-28T15:10:27.191Z,6564
2017-07-28T15:11:37.246Z,6356
2017-07-28T15:12:47.659Z,7152
2017-07-28T15:13:58.031Z,6672
2017-07-28T15:15:08.413Z,6300
2017-07-28T15:16:18.918Z,6100
2017-07-28T15:17:29.370Z,5972
2017-07-28T15:18:39.748Z,7500
2017-07-28T15:19:50.104Z,6324
2017-07-28T15:21:00.497Z,6108
2017-07-28T15:22:10.958Z,6032
2017-07-28T15:23:21.353Z,6004
2017-07-28T15:24:31.754Z,6780
2017-07-28T15:25:42.182Z,5904
2017-07-28T15:26:52.234Z,6912
2017-07-28T15:28:02.692Z,6020
2017-07-28T15:29:12.770Z,6396
2017-07-28T15:30:22.831Z,6448
2017-07-28T15:31:32.921Z,5928
2017-07-28T15:32:43.306Z,5580
2017-07-28T15:33:53.450Z,5468
2017-07-28T15:35:03.611Z,6588
2017-07-28T15:36:13.994Z,5576
2017-07-28T15:37:24.441Z,6248
2017-07-28T15:38:34.812Z,5880
2017-07-28T15:39:45.391Z,5872
2017-07-28T15:40:55.783Z,8004
2017-07-28T15:42:06.290Z,7620
2017-07-28T15:43:16.402Z,8072
2017-07-28T15:44:26.498Z,7184
2017-07-28T15:45:36.956Z,7116
2017-07-28T15:46:47.324Z,6436
2017-07-28T15:47:57.755Z,6260
2017-07-28T15:49:08.043Z,7260
2017-07-28T15:50:18.416Z,7160
2017-07-28T15:51:28.267Z,6424
2017-07-28T15:52:38.657Z,6424
2017-07-28T15:53:49.107Z,7824
2017-07-28T15:54:59.270Z,7868
2017-07-28T15:56:09.664Z,8240
2017-07-28T15:57:20.155Z,8084
2017-07-28T15:58:30.742Z,7804
2017-07-28T15:59:41.174Z,7448
2017-07-28T16:00:51.536Z,6980
2017-07-28T16:02:01.910Z,6208
2017-07-28T16:03:12.366Z,5980
2017-07-28T16:04:22.715Z,5864
2017-07-28T16:05:33.213Z,5696
2017-07-28T16:06:43.597Z,5768
2017-07-28T16:07:53.994Z,5672
2017-07-28T16:09:04.405Z,5544
2017-07-28T16:10:14.818Z,5640
2017-07-28T16:11:24.869Z,5408
2017-07-28T16:12:34.932Z,5504
2017-07-28T16:13:45.342Z,5616
2017-07-28T16:14:55.494Z,5924
2017-07-28T16:16:05.852Z,5932
2017-07-28T16:17:15.910Z,5692
2017-07-28T16:18:26.051Z,5648
2017-07-28T16:19:36.441Z,5864
2017-07-28T16:20:46.999Z,5864
2017-07-28T16:21:57.414Z,5792
2017-07-28T16:23:07.140Z,5312
2017-07-28T16:24:17.564Z,5496